sensor_id;sensor_type;location;lat;lon;timestamp;P1;durP1;ratioP1;P2;durP2;ratioP2
8046;SDS011;74083;42.516;23.358;2023-12-20T00:01:13;0.90;;;0.90;;
8046;SDS011;74083;42.516;23.358;2023-12-20T00:03:59;0.90;;;0.90;;
8046;SDS011;74083;42.516;23.358;2023-12-20T00:45:52;0.90;;;0.90;;
8046;SDS011;74083;42.516;23.358;2023-12-20T00:48:37;0.90;;;0.90;;
8046;SDS011;74083;42.516;23.358;2023-12-20T00:51:25;1.00;;;1.00;;
8046;SDS011;74083;42.516;23.358;2023-12-20T00:54:11;1.00;;;1.00;;
8046;SDS011;74083;42.516;23.358;2023-12-20T00:56:57;0.83;;;0.83;;
8046;SDS011;74083;42.516;23.358;2023-12-20T00:59:43;0.90;;;0.90;;
8046;SDS011;74083;42.516;23.358;2023-12-20T01:02:30;0.90;;;0.90;;
8046;SDS011;74083;42.516;23.358;2023-12-20T01:05:15;1.10;;;1.10;;
8046;SDS011;74083;42.516;23.358;2023-12-20T01:08:01;0.97;;;0.97;;
8046;SDS011;74083;42.516;23.358;2023-12-20T01:10:47;0.90;;;0.90;;
8046;SDS011;74083;42.516;23.358;2023-12-20T01:13:33;1.00;;;1.00;;
8046;SDS011;74083;42.516;23.358;2023-12-20T01:16:18;1.00;;;1.00;;
8046;SDS011;74083;42.516;23.358;2023-12-20T01:19:05;1.00;;;1.00;;
8046;SDS011;74083;42.516;23.358;2023-12-20T01:21:51;0.90;;;0.90;;
8046;SDS011;74083;42.516;23.358;2023-12-20T01:24:37;1.20;;;1.20;;
8046;SDS011;74083;42.516;23.358;2023-12-20T01:27:22;0.90;;;0.90;;
8046;SDS011;74083;42.516;23.358;2023-12-20T01:30:08;1.00;;;1.00;;
8046;SDS011;74083;42.516;23.358;2023-12-20T01:32:54;1.30;;;1.20;;
8046;SDS011;74083;42.516;23.358;2023-12-20T01:35:41;1.00;;;1.00;;
8046;SDS011;74083;42.516;23.358;2023-12-20T01:38:27;1.00;;;1.00;;
8046;SDS011;74083;42.516;23.358;2023-12-20T01:41:12;1.00;;;1.00;;
8046;SDS011;74083;42.516;23.358;2023-12-20T01:43:57;0.90;;;0.90;;
8046;SDS011;74083;42.516;23.358;2023-12-20T01:46:43;1.00;;;1.00;;
8046;SDS011;74083;42.516;23.358;2023-12-20T01:49:28;1.00;;;1.00;;
8046;SDS011;74083;42.516;23.358;2023-12-20T01:52:16;1.10;;;1.10;;
8046;SDS011;74083;42.516;23.358;2023-12-20T01:55:02;1.00;;;1.00;;
8046;SDS011;74083;42.516;23.358;2023-12-20T01:57:50;1.00;;;1.00;;
8046;SDS011;74083;42.516;23.358;2023-12-20T02:00:36;1.10;;;1.10;;
8046;SDS011;74083;42.516;23.358;2023-12-20T02:03:22;1.10;;;1.10;;
8046;SDS011;74083;42.516;23.358;2023-12-20T02:06:08;1.10;;;1.10;;
8046;SDS011;74083;42.516;23.358;2023-12-20T02:08:56;1.00;;;1.00;;
8046;SDS011;74083;42.516;23.358;2023-12-20T02:11:42;1.00;;;1.00;;
8046;SDS011;74083;42.516;23.358;2023-12-20T02:14:28;1.00;;;1.00;;
8046;SDS011;74083;42.516;23.358;2023-12-20T02:17:13;1.00;;;1.00;;
8046;SDS011;74083;42.516;23.358;2023-12-20T02:19:59;1.00;;;1.00;;
8046;SDS011;74083;42.516;23.358;2023-12-20T02:22:46;1.00;;;1.00;;
8046;SDS011;74083;42.516;23.358;2023-12-20T02:25:32;1.00;;;1.00;;
8046;SDS011;74083;42.516;23.358;2023-12-20T02:28:17;1.10;;;1.10;;
8046;SDS011;74083;42.516;23.358;2023-12-20T02:31:03;0.90;;;0.90;;
8046;SDS011;74083;42.516;23.358;2023-12-20T02:33:49;1.00;;;1.00;;
8046;SDS011;74083;42.516;23.358;2023-12-20T02:36:34;1.00;;;1.00;;
8046;SDS011;74083;42.516;23.358;2023-12-20T02:39:21;1.10;;;1.10;;
8046;SDS011;74083;42.516;23.358;2023-12-20T02:42:07;1.10;;;1.10;;
8046;SDS011;74083;42.516;23.358;2023-12-20T02:44:52;1.00;;;1.00;;
8046;SDS011;74083;42.516;23.358;2023-12-20T02:47:38;1.17;;;1.10;;
8046;SDS011;74083;42.516;23.358;2023-12-20T02:50:23;1.00;;;1.00;;
8046;SDS011;74083;42.516;23.358;2023-12-20T02:53:09;1.07;;;1.07;;
8046;SDS011;74083;42.516;23.358;2023-12-20T02:55:56;1.00;;;1.00;;
8046;SDS011;74083;42.516;23.358;2023-12-20T02:58:41;1.00;;;1.00;;
8046;SDS011;74083;42.516;23.358;2023-12-20T03:01:27;1.00;;;1.00;;
8046;SDS011;74083;42.516;23.358;2023-12-20T03:04:14;1.00;;;1.00;;
8046;SDS011;74083;42.516;23.358;2023-12-20T03:07:00;1.20;;;1.20;;
8046;SDS011;74083;42.516;23.358;2023-12-20T03:09:45;1.10;;;1.10;;
8046;SDS011;74083;42.516;23.358;2023-12-20T03:12:32;1.10;;;1.00;;
8046;SDS011;74083;42.516;23.358;2023-12-20T03:15:17;1.00;;;1.00;;
8046;SDS011;74083;42.516;23.358;2023-12-20T03:18:03;1.00;;;1.00;;
8046;SDS011;74083;42.516;23.358;2023-12-20T03:20:49;1.10;;;1.10;;
8046;SDS011;74083;42.516;23.358;2023-12-20T03:23:34;1.00;;;1.00;;
8046;SDS011;74083;42.516;23.358;2023-12-20T03:26:20;1.00;;;1.00;;
8046;SDS011;74083;42.516;23.358;2023-12-20T03:29:07;1.00;;;1.00;;
8046;SDS011;74083;42.516;23.358;2023-12-20T03:31:53;1.00;;;1.00;;
8046;SDS011;74083;42.516;23.358;2023-12-20T03:34:38;1.10;;;1.10;;
8046;SDS011;74083;42.516;23.358;2023-12-20T03:37:24;1.10;;;1.10;;
8046;SDS011;74083;42.516;23.358;2023-12-20T03:40:10;1.10;;;1.10;;
8046;SDS011;74083;42.516;23.358;2023-12-20T03:42:55;1.10;;;1.10;;
8046;SDS011;74083;42.516;23.358;2023-12-20T03:45:43;1.10;;;1.10;;
8046;SDS011;74083;42.516;23.358;2023-12-20T03:48:29;1.20;;;1.20;;
8046;SDS011;74083;42.516;23.358;2023-12-20T03:51:14;1.00;;;1.00;;
8046;SDS011;74083;42.516;23.358;2023-12-20T03:54:00;1.20;;;1.10;;
8046;SDS011;74083;42.516;23.358;2023-12-20T03:56:45;1.80;;;1.00;;
8046;SDS011;74083;42.516;23.358;2023-12-20T03:59:34;1.00;;;1.00;;
8046;SDS011;74083;42.516;23.358;2023-12-20T04:02:21;1.07;;;1.07;;
8046;SDS011;74083;42.516;23.358;2023-12-20T04:05:07;1.87;;;1.10;;
8046;SDS011;74083;42.516;23.358;2023-12-20T04:07:54;1.10;;;1.10;;
8046;SDS011;74083;42.516;23.358;2023-12-20T04:10:39;1.00;;;1.00;;
8046;SDS011;74083;42.516;23.358;2023-12-20T04:13:25;1.10;;;1.10;;
8046;SDS011;74083;42.516;23.358;2023-12-20T04:16:10;0.90;;;0.90;;
8046;SDS011;74083;42.516;23.358;2023-12-20T04:18:57;0.90;;;0.90;;
8046;SDS011;74083;42.516;23.358;2023-12-20T04:21:43;1.17;;;1.10;;
8046;SDS011;74083;42.516;23.358;2023-12-20T04:24:28;1.00;;;1.00;;
8046;SDS011;74083;42.516;23.358;2023-12-20T04:27:14;1.10;;;1.10;;
8046;SDS011;74083;42.516;23.358;2023-12-20T04:29:59;1.00;;;1.00;;
8046;SDS011;74083;42.516;23.358;2023-12-20T04:32:44;1.00;;;1.00;;
8046;SDS011;74083;42.516;23.358;2023-12-20T04:35:31;1.00;;;1.00;;
8046;SDS011;74083;42.516;23.358;2023-12-20T04:38:17;1.00;;;1.00;;
8046;SDS011;74083;42.516;23.358;2023-12-20T04:41:02;1.10;;;1.10;;
8046;SDS011;74083;42.516;23.358;2023-12-20T04:43:48;1.10;;;1.10;;
8046;SDS011;74083;42.516;23.358;2023-12-20T04:46:34;1.00;;;1.00;;
8046;SDS011;74083;42.516;23.358;2023-12-20T04:49:19;1.03;;;1.03;;
8046;SDS011;74083;42.516;23.358;2023-12-20T04:52:06;0.90;;;0.90;;
8046;SDS011;74083;42.516;23.358;2023-12-20T04:54:52;1.03;;;1.03;;
8046;SDS011;74083;42.516;23.358;2023-12-20T04:57:37;1.00;;;1.00;;
8046;SDS011;74083;42.516;23.358;2023-12-20T05:00:23;0.90;;;0.90;;
8046;SDS011;74083;42.516;23.358;2023-12-20T05:03:08;1.00;;;1.00;;
8046;SDS011;74083;42.516;23.358;2023-12-20T05:05:54;1.00;;;1.00;;
8046;SDS011;74083;42.516;23.358;2023-12-20T05:08:41;0.90;;;0.90;;
8046;SDS011;74083;42.516;23.358;2023-12-20T05:11:27;0.90;;;0.90;;
8046;SDS011;74083;42.516;23.358;2023-12-20T05:14:12;0.90;;;0.90;;
8046;SDS011;74083;42.516;23.358;2023-12-20T05:16:58;0.90;;;0.90;;
8046;SDS011;74083;42.516;23.358;2023-12-20T05:19:43;1.80;;;0.90;;
8046;SDS011;74083;42.516;23.358;2023-12-20T05:22:29;0.80;;;0.80;;
8046;SDS011;74083;42.516;23.358;2023-12-20T05:25:15;0.80;;;0.80;;
8046;SDS011;74083;42.516;23.358;2023-12-20T05:28:01;0.80;;;0.80;;
8046;SDS011;74083;42.516;23.358;2023-12-20T05:30:47;0.80;;;0.80;;
8046;SDS011;74083;42.516;23.358;2023-12-20T05:33:33;0.80;;;0.80;;
8046;SDS011;74083;42.516;23.358;2023-12-20T05:36:18;0.80;;;0.80;;
8046;SDS011;74083;42.516;23.358;2023-12-20T05:39:03;0.80;;;0.80;;
8046;SDS011;74083;42.516;23.358;2023-12-20T05:41:50;0.80;;;0.80;;
8046;SDS011;74083;42.516;23.358;2023-12-20T05:44:36;0.80;;;0.80;;
8046;SDS011;74083;42.516;23.358;2023-12-20T05:47:21;0.80;;;0.80;;
8046;SDS011;74083;42.516;23.358;2023-12-20T05:50:07;0.80;;;0.80;;
8046;SDS011;74083;42.516;23.358;2023-12-20T05:52:53;0.90;;;0.90;;
8046;SDS011;74083;42.516;23.358;2023-12-20T05:55:38;0.80;;;0.80;;
8046;SDS011;74083;42.516;23.358;2023-12-20T05:58:25;1.00;;;1.00;;
8046;SDS011;74083;42.516;23.358;2023-12-20T06:01:11;1.00;;;1.00;;
8046;SDS011;74083;42.516;23.358;2023-12-20T06:03:57;1.00;;;1.00;;
8046;SDS011;74083;42.516;23.358;2023-12-20T06:06:43;1.00;;;1.00;;
8046;SDS011;74083;42.516;23.358;2023-12-20T06:09:29;1.10;;;1.10;;
8046;SDS011;74083;42.516;23.358;2023-12-20T06:12:15;1.10;;;1.10;;
8046;SDS011;74083;42.516;23.358;2023-12-20T06:15:01;1.23;;;1.23;;
8046;SDS011;74083;42.516;23.358;2023-12-20T06:17:47;1.37;;;1.30;;
8046;SDS011;74083;42.516;23.358;2023-12-20T06:20:33;1.20;;;1.20;;
8046;SDS011;74083;42.516;23.358;2023-12-20T06:23:18;1.13;;;1.13;;
8046;SDS011;74083;42.516;23.358;2023-12-20T06:26:04;1.20;;;1.20;;
8046;SDS011;74083;42.516;23.358;2023-12-20T06:28:49;1.40;;;1.30;;
8046;SDS011;74083;42.516;23.358;2023-12-20T06:31:36;1.23;;;1.23;;
8046;SDS011;74083;42.516;23.358;2023-12-20T06:34:21;1.00;;;1.00;;
8046;SDS011;74083;42.516;23.358;2023-12-20T06:37:07;1.10;;;1.10;;
8046;SDS011;74083;42.516;23.358;2023-12-20T06:39:52;1.10;;;1.10;;
8046;SDS011;74083;42.516;23.358;2023-12-20T06:42:38;1.30;;;1.20;;
8046;SDS011;74083;42.516;23.358;2023-12-20T06:45:23;1.10;;;1.10;;
8046;SDS011;74083;42.516;23.358;2023-12-20T06:48:09;1.83;;;1.40;;
8046;SDS011;74083;42.516;23.358;2023-12-20T06:50:57;1.20;;;1.20;;
8046;SDS011;74083;42.516;23.358;2023-12-20T06:53:44;1.20;;;1.20;;
8046;SDS011;74083;42.516;23.358;2023-12-20T06:56:29;1.10;;;1.10;;
8046;SDS011;74083;42.516;23.358;2023-12-20T06:59:15;1.10;;;1.10;;
8046;SDS011;74083;42.516;23.358;2023-12-20T07:02:00;1.53;;;1.43;;
8046;SDS011;74083;42.516;23.358;2023-12-20T07:04:47;1.43;;;1.33;;
8046;SDS011;74083;42.516;23.358;2023-12-20T07:07:32;1.30;;;1.20;;
8046;SDS011;74083;42.516;23.358;2023-12-20T07:10:18;1.03;;;1.03;;
8046;SDS011;74083;42.516;23.358;2023-12-20T07:13:04;1.00;;;1.00;;
8046;SDS011;74083;42.516;23.358;2023-12-20T07:15:50;1.00;;;1.00;;
8046;SDS011;74083;42.516;23.358;2023-12-20T07:18:35;1.00;;;1.00;;
8046;SDS011;74083;42.516;23.358;2023-12-20T07:21:22;1.00;;;1.00;;
8046;SDS011;74083;42.516;23.358;2023-12-20T07:24:07;0.93;;;0.93;;
8046;SDS011;74083;42.516;23.358;2023-12-20T07:26:53;0.93;;;0.93;;
8046;SDS011;74083;42.516;23.358;2023-12-20T07:29:38;0.90;;;0.90;;
8046;SDS011;74083;42.516;23.358;2023-12-20T07:32:24;0.90;;;0.90;;
8046;SDS011;74083;42.516;23.358;2023-12-20T07:35:09;0.90;;;0.90;;
8046;SDS011;74083;42.516;23.358;2023-12-20T07:37:56;0.80;;;0.80;;
8046;SDS011;74083;42.516;23.358;2023-12-20T07:40:42;0.90;;;0.90;;
8046;SDS011;74083;42.516;23.358;2023-12-20T07:43:28;0.90;;;0.90;;
8046;SDS011;74083;42.516;23.358;2023-12-20T07:46:13;0.80;;;0.80;;
8046;SDS011;74083;42.516;23.358;2023-12-20T07:48:58;0.80;;;0.80;;
8046;SDS011;74083;42.516;23.358;2023-12-20T07:51:43;0.90;;;0.90;;
8046;SDS011;74083;42.516;23.358;2023-12-20T07:54:30;0.80;;;0.80;;
8046;SDS011;74083;42.516;23.358;2023-12-20T07:57:16;0.83;;;0.83;;
8046;SDS011;74083;42.516;23.358;2023-12-20T08:00:02;0.80;;;0.80;;
8046;SDS011;74083;42.516;23.358;2023-12-20T08:02:49;0.83;;;0.83;;
8046;SDS011;74083;42.516;23.358;2023-12-20T08:05:34;0.80;;;0.80;;
8046;SDS011;74083;42.516;23.358;2023-12-20T08:08:20;0.80;;;0.80;;
8046;SDS011;74083;42.516;23.358;2023-12-20T08:11:07;0.80;;;0.80;;
8046;SDS011;74083;42.516;23.358;2023-12-20T08:13:52;0.80;;;0.80;;
8046;SDS011;74083;42.516;23.358;2023-12-20T08:16:38;0.80;;;0.80;;
8046;SDS011;74083;42.516;23.358;2023-12-20T08:19:23;0.80;;;0.80;;
8046;SDS011;74083;42.516;23.358;2023-12-20T08:22:09;0.80;;;0.80;;
8046;SDS011;74083;42.516;23.358;2023-12-20T08:24:54;0.80;;;0.80;;
8046;SDS011;74083;42.516;23.358;2023-12-20T08:27:41;0.80;;;0.80;;
8046;SDS011;74083;42.516;23.358;2023-12-20T08:30:27;0.80;;;0.80;;
8046;SDS011;74083;42.516;23.358;2023-12-20T08:33:13;0.87;;;0.87;;
8046;SDS011;74083;42.516;23.358;2023-12-20T08:35:58;0.90;;;0.90;;
8046;SDS011;74083;42.516;23.358;2023-12-20T08:38:44;0.80;;;0.80;;
8046;SDS011;74083;42.516;23.358;2023-12-20T08:41:29;0.80;;;0.80;;
8046;SDS011;74083;42.516;23.358;2023-12-20T08:44:16;0.80;;;0.80;;
8046;SDS011;74083;42.516;23.358;2023-12-20T08:47:02;0.80;;;0.80;;
8046;SDS011;74083;42.516;23.358;2023-12-20T08:49:48;0.70;;;0.70;;
8046;SDS011;74083;42.516;23.358;2023-12-20T08:52:33;0.90;;;0.90;;
8046;SDS011;74083;42.516;23.358;2023-12-20T08:55:19;0.80;;;0.80;;
8046;SDS011;74083;42.516;23.358;2023-12-20T08:58:05;0.80;;;0.80;;
8046;SDS011;74083;42.516;23.358;2023-12-20T09:00:53;0.80;;;0.80;;
8046;SDS011;74083;42.516;23.358;2023-12-20T09:03:39;0.80;;;0.80;;
8046;SDS011;74083;42.516;23.358;2023-12-20T09:06:25;0.90;;;0.90;;
8046;SDS011;74083;42.516;23.358;2023-12-20T09:09:10;0.80;;;0.80;;
8046;SDS011;74083;42.516;23.358;2023-12-20T09:11:57;0.80;;;0.80;;
8046;SDS011;74083;42.516;23.358;2023-12-20T09:14:42;0.80;;;0.80;;
8046;SDS011;74083;42.516;23.358;2023-12-20T09:17:29;0.80;;;0.80;;
8046;SDS011;74083;42.516;23.358;2023-12-20T09:20:15;0.80;;;0.80;;
8046;SDS011;74083;42.516;23.358;2023-12-20T09:23:00;0.80;;;0.80;;
8046;SDS011;74083;42.516;23.358;2023-12-20T09:25:46;0.80;;;0.80;;
8046;SDS011;74083;42.516;23.358;2023-12-20T09:28:32;0.80;;;0.80;;
8046;SDS011;74083;42.516;23.358;2023-12-20T09:31:20;0.80;;;0.80;;
8046;SDS011;74083;42.516;23.358;2023-12-20T09:34:07;0.80;;;0.80;;
8046;SDS011;74083;42.516;23.358;2023-12-20T09:36:53;0.80;;;0.80;;
8046;SDS011;74083;42.516;23.358;2023-12-20T09:39:38;0.80;;;0.80;;
8046;SDS011;74083;42.516;23.358;2023-12-20T09:42:25;0.97;;;0.97;;
8046;SDS011;74083;42.516;23.358;2023-12-20T09:45:22;0.90;;;0.90;;
8046;SDS011;74083;42.516;23.358;2023-12-20T09:48:08;0.90;;;0.90;;
8046;SDS011;74083;42.516;23.358;2023-12-20T09:50:57;0.90;;;0.90;;
8046;SDS011;74083;42.516;23.358;2023-12-20T09:53:43;0.80;;;0.80;;
8046;SDS011;74083;42.516;23.358;2023-12-20T09:56:29;0.80;;;0.80;;
8046;SDS011;74083;42.516;23.358;2023-12-20T09:59:15;0.80;;;0.80;;
8046;SDS011;74083;42.516;23.358;2023-12-20T10:02:01;0.90;;;0.90;;
8046;SDS011;74083;42.516;23.358;2023-12-20T10:04:52;0.80;;;0.80;;
8046;SDS011;74083;42.516;23.358;2023-12-20T10:07:40;2.83;;;0.90;;
8046;SDS011;74083;42.516;23.358;2023-12-20T10:10:26;0.80;;;0.80;;
8046;SDS011;74083;42.516;23.358;2023-12-20T10:13:12;0.80;;;0.80;;
8046;SDS011;74083;42.516;23.358;2023-12-20T10:15:58;0.80;;;0.80;;
8046;SDS011;74083;42.516;23.358;2023-12-20T10:18:45;0.90;;;0.90;;
8046;SDS011;74083;42.516;23.358;2023-12-20T10:21:31;0.90;;;0.90;;
8046;SDS011;74083;42.516;23.358;2023-12-20T10:24:18;0.90;;;0.90;;
8046;SDS011;74083;42.516;23.358;2023-12-20T10:27:04;0.80;;;0.80;;
8046;SDS011;74083;42.516;23.358;2023-12-20T10:29:50;0.90;;;0.90;;
8046;SDS011;74083;42.516;23.358;2023-12-20T10:32:37;0.90;;;0.90;;
8046;SDS011;74083;42.516;23.358;2023-12-20T10:35:22;0.93;;;0.80;;
8046;SDS011;74083;42.516;23.358;2023-12-20T10:38:08;0.90;;;0.90;;
8046;SDS011;74083;42.516;23.358;2023-12-20T10:40:57;0.87;;;0.87;;
8046;SDS011;74083;42.516;23.358;2023-12-20T10:43:43;0.97;;;0.97;;
8046;SDS011;74083;42.516;23.358;2023-12-20T10:46:30;0.80;;;0.80;;
8046;SDS011;74083;42.516;23.358;2023-12-20T10:49:17;0.97;;;0.90;;
8046;SDS011;74083;42.516;23.358;2023-12-20T10:52:04;0.90;;;0.90;;
8046;SDS011;74083;42.516;23.358;2023-12-20T10:54:51;0.90;;;0.90;;
8046;SDS011;74083;42.516;23.358;2023-12-20T10:57:39;0.80;;;0.80;;
8046;SDS011;74083;42.516;23.358;2023-12-20T11:00:25;1.37;;;1.00;;
8046;SDS011;74083;42.516;23.358;2023-12-20T11:03:11;1.00;;;1.00;;
8046;SDS011;74083;42.516;23.358;2023-12-20T11:05:58;0.90;;;0.90;;
8046;SDS011;74083;42.516;23.358;2023-12-20T11:08:49;0.90;;;0.90;;
8046;SDS011;74083;42.516;23.358;2023-12-20T11:11:45;0.90;;;0.90;;
8046;SDS011;74083;42.516;23.358;2023-12-20T11:14:43;1.00;;;1.00;;
8046;SDS011;74083;42.516;23.358;2023-12-20T11:17:32;0.90;;;0.90;;
8046;SDS011;74083;42.516;23.358;2023-12-20T11:20:17;0.90;;;0.90;;
8046;SDS011;74083;42.516;23.358;2023-12-20T11:23:03;0.90;;;0.90;;
8046;SDS011;74083;42.516;23.358;2023-12-20T11:25:52;0.93;;;0.93;;
8046;SDS011;74083;42.516;23.358;2023-12-20T11:28:38;1.00;;;1.00;;
8046;SDS011;74083;42.516;23.358;2023-12-20T11:31:25;0.90;;;0.90;;
8046;SDS011;74083;42.516;23.358;2023-12-20T11:34:12;0.90;;;0.90;;
8046;SDS011;74083;42.516;23.358;2023-12-20T11:36:59;0.90;;;0.90;;
8046;SDS011;74083;42.516;23.358;2023-12-20T11:39:45;0.90;;;0.90;;
8046;SDS011;74083;42.516;23.358;2023-12-20T11:42:38;1.00;;;1.00;;
8046;SDS011;74083;42.516;23.358;2023-12-20T11:45:24;0.80;;;0.80;;
8046;SDS011;74083;42.516;23.358;2023-12-20T11:48:12;0.90;;;0.90;;
8046;SDS011;74083;42.516;23.358;2023-12-20T11:50:59;1.10;;;1.10;;
8046;SDS011;74083;42.516;23.358;2023-12-20T11:53:44;0.90;;;0.90;;
8046;SDS011;74083;42.516;23.358;2023-12-20T11:56:36;0.90;;;0.90;;
8046;SDS011;74083;42.516;23.358;2023-12-20T12:25:23;0.90;;;0.90;;
8046;SDS011;74083;42.516;23.358;2023-12-20T12:28:08;1.00;;;1.00;;
8046;SDS011;74083;42.516;23.358;2023-12-20T12:30:58;1.00;;;1.00;;
8046;SDS011;74083;42.516;23.358;2023-12-20T12:33:44;0.93;;;0.93;;
8046;SDS011;74083;42.516;23.358;2023-12-20T12:36:30;1.00;;;1.00;;
8046;SDS011;74083;42.516;23.358;2023-12-20T12:42:04;0.90;;;0.90;;
8046;SDS011;74083;42.516;23.358;2023-12-20T12:44:50;0.90;;;0.90;;
8046;SDS011;74083;42.516;23.358;2023-12-20T12:47:36;0.90;;;0.90;;
8046;SDS011;74083;42.516;23.358;2023-12-20T12:50:21;0.90;;;0.90;;
8046;SDS011;74083;42.516;23.358;2023-12-20T12:53:07;1.00;;;1.00;;
8046;SDS011;74083;42.516;23.358;2023-12-20T12:55:52;1.00;;;1.00;;
8046;SDS011;74083;42.516;23.358;2023-12-20T12:58:40;0.87;;;0.87;;
8046;SDS011;74083;42.516;23.358;2023-12-20T13:01:26;0.90;;;0.90;;
8046;SDS011;74083;42.516;23.358;2023-12-20T13:04:11;0.90;;;0.90;;
8046;SDS011;74083;42.516;23.358;2023-12-20T13:06:56;0.87;;;0.87;;
8046;SDS011;74083;42.516;23.358;2023-12-20T13:09:42;1.07;;;1.00;;
8046;SDS011;74083;42.516;23.358;2023-12-20T13:12:28;0.90;;;0.90;;
8046;SDS011;74083;42.516;23.358;2023-12-20T13:15:15;0.90;;;0.90;;
8046;SDS011;74083;42.516;23.358;2023-12-20T13:18:00;0.80;;;0.80;;
8046;SDS011;74083;42.516;23.358;2023-12-20T13:20:46;0.90;;;0.90;;
8046;SDS011;74083;42.516;23.358;2023-12-20T13:23:32;0.90;;;0.90;;
8046;SDS011;74083;42.516;23.358;2023-12-20T13:46:51;1.50;;;1.40;;
8046;SDS011;74083;42.516;23.358;2023-12-20T13:49:38;1.00;;;1.00;;
8046;SDS011;74083;42.516;23.358;2023-12-20T13:52:23;1.10;;;1.00;;
8046;SDS011;74083;42.516;23.358;2023-12-20T13:55:09;0.90;;;0.90;;
8046;SDS011;74083;42.516;23.358;2023-12-20T13:57:55;1.03;;;1.03;;
8046;SDS011;74083;42.516;23.358;2023-12-20T14:00:41;0.97;;;0.97;;
8046;SDS011;74083;42.516;23.358;2023-12-20T14:03:28;1.00;;;1.00;;
8046;SDS011;74083;42.516;23.358;2023-12-20T14:06:14;0.90;;;0.90;;
8046;SDS011;74083;42.516;23.358;2023-12-20T14:09:00;1.00;;;1.00;;
8046;SDS011;74083;42.516;23.358;2023-12-20T14:11:46;1.17;;;1.07;;
8046;SDS011;74083;42.516;23.358;2023-12-20T14:14:31;1.10;;;1.00;;
8046;SDS011;74083;42.516;23.358;2023-12-20T14:17:17;2.20;;;1.07;;
8046;SDS011;74083;42.516;23.358;2023-12-20T14:20:05;0.93;;;0.93;;
8046;SDS011;74083;42.516;23.358;2023-12-20T14:22:52;0.97;;;0.97;;
8046;SDS011;74083;42.516;23.358;2023-12-20T14:25:38;1.10;;;1.10;;
8046;SDS011;74083;42.516;23.358;2023-12-20T14:28:24;1.03;;;1.03;;
8046;SDS011;74083;42.516;23.358;2023-12-20T14:31:10;1.07;;;1.07;;
8046;SDS011;74083;42.516;23.358;2023-12-20T14:33:56;1.10;;;1.10;;
8046;SDS011;74083;42.516;23.358;2023-12-20T14:36:43;1.10;;;1.00;;
8046;SDS011;74083;42.516;23.358;2023-12-20T14:39:29;1.20;;;1.20;;
8046;SDS011;74083;42.516;23.358;2023-12-20T14:42:15;1.10;;;1.10;;
8046;SDS011;74083;42.516;23.358;2023-12-20T14:45:00;1.10;;;1.10;;
8046;SDS011;74083;42.516;23.358;2023-12-20T14:47:45;1.20;;;1.20;;
8046;SDS011;74083;42.516;23.358;2023-12-20T14:50:31;1.27;;;1.27;;
8046;SDS011;74083;42.516;23.358;2023-12-20T14:53:18;1.10;;;1.10;;
8046;SDS011;74083;42.516;23.358;2023-12-20T14:56:04;1.40;;;1.30;;
8046;SDS011;74083;42.516;23.358;2023-12-20T14:58:51;1.17;;;1.17;;
8046;SDS011;74083;42.516;23.358;2023-12-20T15:01:36;1.27;;;1.20;;
8046;SDS011;74083;42.516;23.358;2023-12-20T15:04:24;1.30;;;1.30;;
8046;SDS011;74083;42.516;23.358;2023-12-20T15:07:12;1.13;;;1.13;;
8046;SDS011;74083;42.516;23.358;2023-12-20T15:09:59;1.20;;;1.20;;
8046;SDS011;74083;42.516;23.358;2023-12-20T15:12:44;1.20;;;1.20;;
8046;SDS011;74083;42.516;23.358;2023-12-20T15:15:30;1.50;;;1.40;;
8046;SDS011;74083;42.516;23.358;2023-12-20T15:18:17;1.33;;;1.33;;
8046;SDS011;74083;42.516;23.358;2023-12-20T15:21:03;1.20;;;1.20;;
8046;SDS011;74083;42.516;23.358;2023-12-20T15:23:49;1.20;;;1.20;;
8046;SDS011;74083;42.516;23.358;2023-12-20T15:26:39;1.50;;;1.40;;
8046;SDS011;74083;42.516;23.358;2023-12-20T15:29:24;1.50;;;1.40;;
8046;SDS011;74083;42.516;23.358;2023-12-20T15:32:10;1.50;;;1.40;;
8046;SDS011;74083;42.516;23.358;2023-12-20T15:34:56;1.20;;;1.20;;
8046;SDS011;74083;42.516;23.358;2023-12-20T15:37:42;1.47;;;1.40;;
8046;SDS011;74083;42.516;23.358;2023-12-20T15:40:29;1.60;;;1.50;;
8046;SDS011;74083;42.516;23.358;2023-12-20T15:43:16;1.30;;;1.30;;
8046;SDS011;74083;42.516;23.358;2023-12-20T15:46:02;1.57;;;1.47;;
8046;SDS011;74083;42.516;23.358;2023-12-20T15:48:47;1.43;;;1.33;;
8046;SDS011;74083;42.516;23.358;2023-12-20T15:51:35;1.50;;;1.40;;
8046;SDS011;74083;42.516;23.358;2023-12-20T15:54:21;1.50;;;1.40;;
8046;SDS011;74083;42.516;23.358;2023-12-20T15:57:07;1.50;;;1.40;;
8046;SDS011;74083;42.516;23.358;2023-12-20T15:59:54;1.30;;;1.30;;
8046;SDS011;74083;42.516;23.358;2023-12-20T16:02:40;1.33;;;1.30;;
8046;SDS011;74083;42.516;23.358;2023-12-20T16:05:25;1.50;;;1.40;;
8046;SDS011;74083;42.516;23.358;2023-12-20T16:08:11;1.47;;;1.37;;
8046;SDS011;74083;42.516;23.358;2023-12-20T16:10:58;1.57;;;1.47;;
8046;SDS011;74083;42.516;23.358;2023-12-20T16:13:44;1.50;;;1.40;;
8046;SDS011;74083;42.516;23.358;2023-12-20T16:16:31;1.60;;;1.50;;
8046;SDS011;74083;42.516;23.358;2023-12-20T16:19:17;1.50;;;1.40;;
8046;SDS011;74083;42.516;23.358;2023-12-20T16:22:02;1.50;;;1.40;;
8046;SDS011;74083;42.516;23.358;2023-12-20T16:24:49;1.60;;;1.50;;
8046;SDS011;74083;42.516;23.358;2023-12-20T16:27:34;1.17;;;1.17;;
8046;SDS011;74083;42.516;23.358;2023-12-20T16:30:20;1.50;;;1.40;;
8046;SDS011;74083;42.516;23.358;2023-12-20T16:33:06;1.30;;;1.30;;
8046;SDS011;74083;42.516;23.358;2023-12-20T16:35:52;2.00;;;1.20;;
8046;SDS011;74083;42.516;23.358;2023-12-20T16:38:41;1.63;;;1.53;;
8046;SDS011;74083;42.516;23.358;2023-12-20T16:41:26;1.20;;;1.20;;
8046;SDS011;74083;42.516;23.358;2023-12-20T16:44:12;1.37;;;1.27;;
8046;SDS011;74083;42.516;23.358;2023-12-20T16:46:58;1.27;;;1.20;;
8046;SDS011;74083;42.516;23.358;2023-12-20T16:49:45;1.40;;;1.30;;
8046;SDS011;74083;42.516;23.358;2023-12-20T16:52:32;1.27;;;1.27;;
8046;SDS011;74083;42.516;23.358;2023-12-20T16:55:17;1.50;;;1.40;;
8046;SDS011;74083;42.516;23.358;2023-12-20T16:58:03;1.20;;;1.20;;
8046;SDS011;74083;42.516;23.358;2023-12-20T17:00:49;1.33;;;1.33;;
8046;SDS011;74083;42.516;23.358;2023-12-20T17:03:35;1.33;;;1.33;;
8046;SDS011;74083;42.516;23.358;2023-12-20T17:06:22;1.50;;;1.40;;
8046;SDS011;74083;42.516;23.358;2023-12-20T17:09:08;1.70;;;1.47;;
8046;SDS011;74083;42.516;23.358;2023-12-20T17:11:54;1.20;;;1.20;;
8046;SDS011;74083;42.516;23.358;2023-12-20T17:14:40;1.40;;;1.40;;
8046;SDS011;74083;42.516;23.358;2023-12-20T17:17:25;1.17;;;1.17;;
8046;SDS011;74083;42.516;23.358;2023-12-20T17:20:11;1.60;;;1.43;;
8046;SDS011;74083;42.516;23.358;2023-12-20T17:22:58;1.37;;;1.33;;
8046;SDS011;74083;42.516;23.358;2023-12-20T17:25:44;1.60;;;1.50;;
8046;SDS011;74083;42.516;23.358;2023-12-20T17:28:29;1.70;;;1.60;;
8046;SDS011;74083;42.516;23.358;2023-12-20T17:31:15;1.60;;;1.50;;
8046;SDS011;74083;42.516;23.358;2023-12-20T17:34:01;1.83;;;1.43;;
8046;SDS011;74083;42.516;23.358;2023-12-20T17:36:47;1.70;;;1.60;;
8046;SDS011;74083;42.516;23.358;2023-12-20T17:39:35;1.60;;;1.50;;
8046;SDS011;74083;42.516;23.358;2023-12-20T17:42:21;1.60;;;1.50;;
8046;SDS011;74083;42.516;23.358;2023-12-20T17:45:06;1.30;;;1.30;;
8046;SDS011;74083;42.516;23.358;2023-12-20T17:47:52;1.50;;;1.40;;
8046;SDS011;74083;42.516;23.358;2023-12-20T17:50:38;1.60;;;1.50;;
8046;SDS011;74083;42.516;23.358;2023-12-20T17:53:23;1.40;;;1.40;;
8046;SDS011;74083;42.516;23.358;2023-12-20T17:56:10;1.60;;;1.50;;
8046;SDS011;74083;42.516;23.358;2023-12-20T17:58:55;2.80;;;2.10;;
8046;SDS011;74083;42.516;23.358;2023-12-20T18:01:41;2.10;;;2.00;;
8046;SDS011;74083;42.516;23.358;2023-12-20T18:04:26;2.20;;;2.00;;
8046;SDS011;74083;42.516;23.358;2023-12-20T18:07:12;1.83;;;1.73;;
8046;SDS011;74083;42.516;23.358;2023-12-20T18:09:58;2.20;;;2.00;;